Time;durP1;ratioP1;P1;durP2;ratioP2;P2;SDS_P1;SDS_P2;PMS_P1;PMS_P2;Temp;Humidity;BMP_temperature;BMP_pressure;BME280_temperature;BME280_humidity;BME280_pressure;Samples;Min_cycle;Max_cycle;Signal;HPM_P1;HPM_P2
2024/01/29 00:01:23;;;;;;;4.53;2.97;;;5.10;99.90;;;;;;5102483;28;20031;-36
2024/01/29 00:03:49;;;;;;;4.90;3.00;;;5.00;99.90;;;;;;5103447;28;20036;-37
2024/01/29 00:06:15;;;;;;;4.18;3.03;;;5.00;99.90;;;;;;5101405;28;20030;-31
2024/01/29 00:08:41;;;;;;;3.80;2.90;;;5.00;99.90;;;;;;5103138;28;20035;-36
2024/01/29 00:11:07;;;;;;;3.63;2.65;;;5.00;99.90;;;;;;5101600;28;20028;-35
2024/01/29 00:13:36;;;;;;;3.50;2.85;;;5.00;99.90;;;;;;5102389;28;20035;-36
2024/01/29 00:16:01;;;;;;;3.55;2.90;;;5.00;99.90;;;;;;5102779;28;20051;-37
2024/01/29 00:18:27;;;;;;;3.78;3.10;;;4.90;99.90;;;;;;5102022;28;20027;-37
2024/01/29 00:20:52;;;;;;;3.70;2.58;;;4.90;99.90;;;;;;5102696;28;20092;-32
2024/01/29 00:23:18;;;;;;;4.10;3.42;;;4.90;99.90;;;;;;5102171;28;20031;-32
2024/01/29 00:25:45;;;;;;;3.72;3.00;;;4.80;99.90;;;;;;5101921;28;20031;-34
2024/01/29 00:28:10;;;;;;;3.30;2.80;;;4.80;99.90;;;;;;5102756;28;20046;-31
2024/01/29 00:30:39;;;;;;;3.85;2.83;;;4.70;99.90;;;;;;5101045;28;20024;-36
2024/01/29 00:33:04;;;;;;;3.90;2.78;;;4.70;99.90;;;;;;5090179;28;20035;-33
2024/01/29 00:35:33;;;;;;;4.25;2.72;;;4.70;99.90;;;;;;5102242;28;20023;-33
2024/01/29 00:37:59;;;;;;;3.60;2.63;;;4.70;99.90;;;;;;5102629;28;20101;-30
2024/01/29 00:40:25;;;;;;;4.28;3.08;;;4.70;99.90;;;;;;5101171;28;20115;-31
2024/01/29 00:42:50;;;;;;;3.45;2.63;;;4.60;99.90;;;;;;5102516;28;20024;-35
2024/01/29 00:45:16;;;;;;;4.00;3.08;;;4.70;99.90;;;;;;5102053;28;20043;-31
2024/01/29 00:47:41;;;;;;;3.00;2.58;;;4.60;99.90;;;;;;5101023;28;20198;-35
2024/01/29 00:50:08;;;;;;;4.43;3.08;;;4.60;99.90;;;;;;5102710;28;20073;-32
2024/01/29 00:52:33;;;;;;;3.28;2.55;;;4.60;99.90;;;;;;5101487;28;20039;-33
2024/01/29 00:54:59;;;;;;;3.97;2.83;;;4.50;99.90;;;;;;5100952;28;20378;-35
2024/01/29 00:57:25;;;;;;;3.92;3.08;;;4.50;99.90;;;;;;5101497;28;20138;-30
2024/01/29 00:59:51;;;;;;;3.53;3.03;;;4.40;99.90;;;;;;5101310;28;20134;-29
2024/01/29 01:02:16;;;;;;;2.90;2.40;;;4.40;99.90;;;;;;5100366;28;20153;-36
2024/01/29 01:04:42;;;;;;;3.50;2.70;;;4.40;99.90;;;;;;5102108;28;20028;-31
2024/01/29 01:07:08;;;;;;;3.00;2.70;;;4.40;99.90;;;;;;5100359;28;20028;-34
2024/01/29 01:09:33;;;;;;;4.15;2.90;;;4.40;99.90;;;;;;5100860;28;20067;-37
2024/01/29 01:11:59;;;;;;;5.03;3.22;;;4.30;99.90;;;;;;5101435;28;20019;-34
2024/01/29 01:14:24;;;;;;;5.47;3.00;;;4.30;99.90;;;;;;5100678;28;20059;-36
2024/01/29 01:16:50;;;;;;;3.47;2.88;;;4.30;99.90;;;;;;5101548;28;20857;-33
2024/01/29 01:19:15;;;;;;;4.30;2.88;;;4.30;99.90;;;;;;5100951;28;20031;-34
2024/01/29 01:21:41;;;;;;;3.42;2.88;;;4.20;99.90;;;;;;5100939;28;20545;-36
2024/01/29 01:24:07;;;;;;;3.20;2.85;;;4.20;99.90;;;;;;5100578;28;20131;-32
2024/01/29 01:26:32;;;;;;;3.00;2.70;;;4.20;99.90;;;;;;5101227;28;20080;-34
2024/01/29 01:28:58;;;;;;;3.40;2.58;;;4.20;99.90;;;;;;5100226;28;20155;-32
2024/01/29 01:31:23;;;;;;;4.65;3.00;;;4.20;99.90;;;;;;5100569;28;20027;-31
2024/01/29 01:33:49;;;;;;;3.78;2.63;;;4.20;99.90;;;;;;5101436;28;20771;-32
2024/01/29 01:36:15;;;;;;;5.15;2.78;;;4.20;99.90;;;;;;5100123;28;20085;-36
2024/01/29 01:38:40;;;;;;;3.65;3.22;;;4.20;99.90;;;;;;5100363;28;20039;-32
2024/01/29 01:41:06;;;;;;;2.92;2.47;;;4.10;99.90;;;;;;5100742;28;20028;-33
2024/01/29 01:43:31;;;;;;;3.50;2.70;;;4.10;99.90;;;;;;5099328;28;20031;-31
2024/01/29 01:46:14;;;;;;;3.22;2.80;;;4.10;99.90;;;;;;5100319;28;20047;-31
2024/01/29 01:48:40;;;;;;;3.53;2.70;;;4.10;99.90;;;;;;5100284;28;20036;-34
2024/01/29 01:51:06;;;;;;;2.92;2.40;;;4.10;99.90;;;;;;5100265;28;20054;-34
2024/01/29 01:53:34;;;;;;;5.63;2.97;;;4.10;99.90;;;;;;5100435;28;20034;-32
2024/01/29 01:56:00;;;;;;;2.85;2.53;;;4.10;99.90;;;;;;5100198;28;20023;-31
2024/01/29 01:58:27;;;;;;;2.90;2.33;;;4.10;99.90;;;;;;5099266;28;20118;-31
2024/01/29 02:00:55;;;;;;;3.38;2.70;;;4.10;99.90;;;;;;5100510;28;20019;-34
2024/01/29 02:03:21;;;;;;;3.63;2.40;;;4.10;99.90;;;;;;5099711;28;20031;-33
2024/01/29 02:05:49;;;;;;;3.35;3.03;;;4.10;99.90;;;;;;5099844;28;20015;-32
2024/01/29 02:08:16;;;;;;;4.50;2.90;;;4.10;99.90;;;;;;5099634;28;20096;-34
2024/01/29 02:10:42;;;;;;;2.80;2.50;;;4.10;99.90;;;;;;5098992;28;20032;-33
2024/01/29 02:13:14;;;;;;;3.80;2.67;;;4.10;99.90;;;;;;5100017;28;20031;-35
2024/01/29 02:15:41;;;;;;;2.83;2.50;;;4.10;99.90;;;;;;5099778;28;20051;-34
2024/01/29 02:18:07;;;;;;;4.38;3.83;;;4.10;99.90;;;;;;5099250;28;20479;-32
2024/01/29 02:20:34;;;;;;;4.93;3.42;;;4.00;99.90;;;;;;5099085;28;20030;-32
2024/01/29 02:22:59;;;;;;;3.30;2.97;;;4.00;99.90;;;;;;5099321;28;20378;-35
2024/01/29 02:25:25;;;;;;;3.92;2.80;;;4.00;99.90;;;;;;5098918;28;20028;-36
2024/01/29 02:27:50;;;;;;;3.80;3.22;;;4.00;99.90;;;;;;5100633;28;20119;-32
2024/01/29 02:30:16;;;;;;;4.43;2.70;;;4.00;99.90;;;;;;5100014;28;20023;-33
2024/01/29 02:32:42;;;;;;;4.28;3.08;;;4.00;99.90;;;;;;5098999;28;20034;-34
2024/01/29 02:35:07;;;;;;;3.00;2.65;;;3.90;99.90;;;;;;5100265;28;20811;-32
2024/01/29 02:37:34;;;;;;;3.60;2.70;;;3.90;99.90;;;;;;5099800;28;20081;-33
2024/01/29 02:40:00;;;;;;;3.28;2.97;;;3.90;99.90;;;;;;5099311;28;20016;-37
2024/01/29 02:42:26;;;;;;;3.63;2.88;;;3.90;99.90;;;;;;5099389;28;20026;-32
2024/01/29 02:44:51;;;;;;;4.53;2.88;;;3.90;99.90;;;;;;5099179;28;20039;-32
2024/01/29 02:47:17;;;;;;;4.13;3.20;;;3.90;99.90;;;;;;5098484;28;20031;-34
2024/01/29 02:49:43;;;;;;;3.20;2.83;;;3.90;99.90;;;;;;5099167;28;20100;-30
2024/01/29 02:52:12;;;;;;;3.58;2.85;;;3.80;99.90;;;;;;5097649;28;20065;-31
2024/01/29 02:54:38;;;;;;;3.47;3.03;;;3.80;99.90;;;;;;5098906;28;20030;-33
2024/01/29 02:57:04;;;;;;;3.58;2.70;;;3.80;99.90;;;;;;5099136;28;20525;-37
2024/01/29 02:59:30;;;;;;;3.75;2.97;;;3.80;99.90;;;;;;5099710;28;20031;-31
2024/01/29 03:01:55;;;;;;;3.47;3.13;;;3.80;99.90;;;;;;5099240;28;20030;-32
2024/01/29 03:04:27;;;;;;;3.40;3.00;;;3.80;99.90;;;;;;5099443;28;20031;-30
2024/01/29 03:06:53;;;;;;;3.72;3.15;;;3.80;99.90;;;;;;5098545;28;20030;-32
2024/01/29 03:09:18;;;;;;;4.85;2.85;;;3.70;99.90;;;;;;5099240;28;20032;-34
2024/01/29 03:11:50;;;;;;;5.88;3.33;;;3.70;99.90;;;;;;5099408;28;20098;-32
2024/01/29 03:14:15;;;;;;;4.40;3.28;;;3.70;99.90;;;;;;5098258;28;20823;-33
2024/01/29 03:16:41;;;;;;;3.55;2.92;;;3.70;99.90;;;;;;5102225;28;20466;-29
2024/01/29 03:19:07;;;;;;;4.07;3.20;;;3.70;99.90;;;;;;5103782;28;20796;-32
2024/01/29 03:21:33;;;;;;;4.30;2.72;;;3.70;99.90;;;;;;5102139;28;20946;-31
2024/01/29 03:23:59;;;;;;;5.35;3.00;;;3.70;99.90;;;;;;5102990;28;20023;-36
2024/01/29 03:26:25;;;;;;;4.72;2.90;;;3.70;99.90;;;;;;5102915;28;20050;-37
2024/01/29 03:28:50;;;;;;;3.80;3.08;;;3.70;99.90;;;;;;5102302;28;20130;-31
2024/01/29 03:31:16;;;;;;;3.33;2.95;;;3.70;99.90;;;;;;5103574;28;20363;-31
2024/01/29 03:33:41;;;;;;;4.10;2.78;;;3.80;99.90;;;;;;5103332;28;20028;-36
2024/01/29 03:36:07;;;;;;;5.40;3.28;;;3.80;99.90;;;;;;5102991;28;20117;-36
2024/01/29 03:38:36;;;;;;;4.80;3.30;;;3.80;99.90;;;;;;5103063;28;20042;-34
2024/01/29 03:41:02;;;;;;;4.38;3.20;;;3.80;99.90;;;;;;5103616;28;20027;-34
2024/01/29 03:43:27;;;;;;;3.22;2.92;;;3.80;99.90;;;;;;5102378;28;20072;-35
2024/01/29 03:45:53;;;;;;;3.72;3.33;;;3.80;99.90;;;;;;5102985;28;20032;-36
2024/01/29 03:48:19;;;;;;;3.38;2.60;;;3.80;99.90;;;;;;5102547;28;20046;-31
2024/01/29 03:50:44;;;;;;;4.07;3.08;;;3.80;99.90;;;;;;5102360;28;20088;-34
2024/01/29 03:53:10;;;;;;;4.18;3.10;;;3.80;99.90;;;;;;5102802;28;20027;-32
2024/01/29 03:55:36;;;;;;;4.32;3.13;;;3.80;99.90;;;;;;5103185;28;20050;-30
2024/01/29 03:58:01;;;;;;;4.60;2.80;;;3.90;99.90;;;;;;5101680;28;20019;-37
2024/01/29 04:00:30;;;;;;;5.18;3.30;;;3.90;99.90;;;;;;5102364;28;20227;-36
2024/01/29 04:02:59;;;;;;;3.42;3.08;;;3.90;99.90;;;;;;5102767;28;20051;-37
2024/01/29 04:05:25;;;;;;;4.15;2.85;;;3.90;99.90;;;;;;5102650;28;20051;-36
2024/01/29 04:07:51;;;;;;;5.22;3.42;;;3.90;99.90;;;;;;5102975;28;20830;-37
2024/01/29 04:10:17;;;;;;;3.67;3.22;;;3.90;99.90;;;;;;5102084;28;20034;-35
2024/01/29 04:12:42;;;;;;;3.97;3.30;;;3.90;99.90;;;;;;5103512;28;20035;-34
2024/01/29 04:15:11;;;;;;;4.15;3.15;;;3.90;99.90;;;;;;5102617;28;20557;-34
2024/01/29 04:17:36;;;;;;;3.83;3.17;;;3.90;99.90;;;;;;5102105;28;20027;-35
2024/01/29 04:20:05;;;;;;;4.30;2.78;;;3.90;99.90;;;;;;5102133;28;20015;-34
2024/01/29 04:22:32;;;;;;;4.25;2.70;;;3.90;99.90;;;;;;5101727;28;20481;-35
2024/01/29 04:24:58;;;;;;;3.83;2.85;;;3.90;99.90;;;;;;5101521;28;20031;-34
2024/01/29 04:27:24;;;;;;;4.47;3.17;;;4.00;99.90;;;;;;5101063;28;20546;-32
2024/01/29 04:29:49;;;;;;;4.85;3.45;;;4.00;99.90;;;;;;5101676;28;20029;-37
2024/01/29 04:32:15;;;;;;;3.92;2.83;;;4.00;99.90;;;;;;5100822;28;20810;-34
2024/01/29 04:34:40;;;;;;;3.88;3.10;;;4.00;99.90;;;;;;5101793;28;20025;-31
2024/01/29 04:37:06;;;;;;;4.10;3.38;;;4.10;99.90;;;;;;5101849;28;20024;-34
2024/01/29 04:39:32;;;;;;;4.72;3.15;;;4.10;99.90;;;;;;5101077;28;20794;-35
2024/01/29 04:41:57;;;;;;;3.63;3.05;;;4.20;99.90;;;;;;5101711;28;20027;-32
2024/01/29 04:44:23;;;;;;;3.80;2.90;;;4.20;99.90;;;;;;5101131;28;20596;-34
2024/01/29 04:46:49;;;;;;;3.20;2.90;;;4.20;99.90;;;;;;5100738;28;20063;-33
2024/01/29 04:49:14;;;;;;;3.75;3.00;;;4.30;99.90;;;;;;5101783;28;20066;-33
2024/01/29 04:51:40;;;;;;;2.80;2.40;;;4.30;99.90;;;;;;5101489;28;20098;-35
2024/01/29 04:54:05;;;;;;;4.07;3.00;;;4.30;99.90;;;;;;5100275;28;20023;-36
2024/01/29 04:56:31;;;;;;;2.72;2.50;;;4.40;99.90;;;;;;5101290;28;20058;-35
2024/01/29 04:58:57;;;;;;;4.15;3.15;;;4.30;99.90;;;;;;5100406;28;20031;-35
2024/01/29 05:01:25;;;;;;;4.82;3.20;;;4.30;99.90;;;;;;5100241;28;20118;-35
2024/01/29 05:03:51;;;;;;;4.35;2.75;;;4.30;99.90;;;;;;5102032;28;20043;-36
2024/01/29 05:06:17;;;;;;;4.18;3.13;;;4.30;99.90;;;;;;5101168;28;20092;-34
2024/01/29 05:08:44;;;;;;;3.72;3.10;;;4.30;99.90;;;;;;5100764;28;20800;-34
2024/01/29 05:11:09;;;;;;;3.58;3.00;;;4.30;99.90;;;;;;5100269;28;20186;-35
2024/01/29 05:13:35;;;;;;;3.38;2.97;;;4.20;99.90;;;;;;5100319;28;20027;-31
2024/01/29 05:16:00;;;;;;;4.05;3.00;;;4.20;99.90;;;;;;5100557;28;20051;-32
2024/01/29 05:18:26;;;;;;;5.22;3.40;;;4.20;99.90;;;;;;5101298;28;20212;-33
2024/01/29 05:20:52;;;;;;;3.38;3.08;;;4.20;99.90;;;;;;5100326;28;20390;-33
2024/01/29 05:23:17;;;;;;;4.40;3.50;;;4.20;99.90;;;;;;5100723;28;20065;-35
2024/01/29 05:25:44;;;;;;;4.50;3.30;;;4.20;99.90;;;;;;5100932;28;20098;-35
2024/01/29 05:28:09;;;;;;;3.70;3.15;;;4.10;99.90;;;;;;5100566;28;20105;-33
2024/01/29 05:30:35;;;;;;;4.78;3.50;;;4.10;99.90;;;;;;5100657;28;20098;-32
2024/01/29 05:33:01;;;;;;;3.80;3.30;;;4.10;99.90;;;;;;5101417;28;20027;-37
2024/01/29 05:35:26;;;;;;;4.45;2.92;;;4.00;99.90;;;;;;5099928;28;20023;-35
2024/01/29 05:37:52;;;;;;;4.32;3.50;;;4.00;99.90;;;;;;5099681;28;20764;-35
2024/01/29 05:40:17;;;;;;;3.65;3.28;;;4.00;99.90;;;;;;5100195;28;20023;-33
2024/01/29 05:42:43;;;;;;;4.60;3.30;;;4.00;99.90;;;;;;5099557;28;20031;-31
2024/01/29 05:45:09;;;;;;;4.05;3.33;;;4.00;99.90;;;;;;5100045;28;20027;-35
2024/01/29 05:47:34;;;;;;;4.72;3.55;;;3.90;99.90;;;;;;5099607;28;20089;-34
2024/01/29 05:50:01;;;;;;;3.60;3.30;;;3.90;99.90;;;;;;5099710;28;20587;-33
2024/01/29 05:52:26;;;;;;;4.43;3.22;;;3.90;99.90;;;;;;5100113;28;20024;-32
2024/01/29 05:54:52;;;;;;;3.90;3.50;;;3.90;99.90;;;;;;5100560;28;20629;-35
2024/01/29 05:57:17;;;;;;;4.55;3.30;;;3.90;99.90;;;;;;5099438;28;20794;-37
2024/01/29 05:59:43;;;;;;;5.53;3.80;;;3.90;99.90;;;;;;5100459;28;20872;-36
2024/01/29 06:02:09;;;;;;;4.45;3.20;;;3.90;99.90;;;;;;5100090;28;20414;-37
2024/01/29 06:04:34;;;;;;;4.38;3.67;;;3.90;99.90;;;;;;5099779;28;20024;-34
2024/01/29 06:07:00;;;;;;;3.78;3.10;;;3.90;99.90;;;;;;5099382;28;20034;-37
2024/01/29 06:09:25;;;;;;;4.03;3.13;;;3.90;99.90;;;;;;5099691;28;20039;-34
2024/01/29 06:11:51;;;;;;;3.78;3.25;;;3.90;99.90;;;;;;5099179;28;20127;-35
2024/01/29 06:14:17;;;;;;;4.00;3.22;;;3.90;99.90;;;;;;5099502;28;20163;-34
2024/01/29 06:16:46;;;;;;;4.85;3.47;;;3.90;99.90;;;;;;5099278;28;20024;-34
2024/01/29 06:19:15;;;;;;;4.75;3.30;;;3.90;99.90;;;;;;5096178;28;20531;-35
2024/01/29 06:21:44;;;;;;;4.40;3.20;;;3.90;99.90;;;;;;5100014;28;20502;-38
2024/01/29 06:24:10;;;;;;;5.65;3.17;;;4.00;99.90;;;;;;5098078;28;20015;-35
2024/01/29 06:26:37;;;;;;;3.65;3.35;;;4.00;99.90;;;;;;5099200;28;20046;-34
2024/01/29 06:29:03;;;;;;;6.38;2.97;;;4.00;99.90;;;;;;5099329;28;20059;-34
2024/01/29 06:31:29;;;;;;;4.20;3.20;;;4.00;99.90;;;;;;5098768;28;20023;-32
2024/01/29 06:33:55;;;;;;;3.60;3.10;;;4.10;99.90;;;;;;5099417;28;20070;-33
2024/01/29 06:36:21;;;;;;;3.60;3.05;;;4.10;99.90;;;;;;5098953;28;20482;-30
2024/01/29 06:38:47;;;;;;;3.42;2.67;;;4.00;99.90;;;;;;5098664;28;20027;-33
2024/01/29 06:41:23;;;;;;;3.55;2.80;;;4.10;99.90;;;;;;5098896;28;20122;-34
2024/01/29 06:43:49;;;;;;;3.28;2.92;;;4.10;99.90;;;;;;5099957;28;20019;-34
2024/01/29 06:46:15;;;;;;;5.50;3.17;;;4.10;99.90;;;;;;5099014;28;20041;-38
2024/01/29 06:48:40;;;;;;;4.82;3.22;;;4.10;99.90;;;;;;5099504;28;20783;-38
2024/01/29 06:51:06;;;;;;;3.42;3.08;;;4.10;99.90;;;;;;5099641;28;20634;-36
2024/01/29 06:53:35;;;;;;;4.88;3.03;;;4.20;99.90;;;;;;5099372;28;20102;-32
2024/01/29 06:56:07;;;;;;;3.95;3.13;;;4.20;99.90;;;;;;5099291;28;20877;-31
2024/01/29 06:58:36;;;;;;;3.17;2.70;;;4.20;99.90;;;;;;5099060;28;20027;-32
2024/01/29 07:01:02;;;;;;;4.03;3.25;;;4.30;99.90;;;;;;5087359;28;20061;-36
2024/01/29 07:03:28;;;;;;;3.75;3.00;;;4.30;99.90;;;;;;5099755;28;20480;-36
2024/01/29 07:05:54;;;;;;;4.60;3.53;;;4.30;99.90;;;;;;5099387;28;20076;-36
2024/01/29 07:08:20;;;;;;;4.95;3.50;;;4.40;99.90;;;;;;5098820;28;20051;-36
2024/01/29 07:10:46;;;;;;;3.92;3.42;;;4.40;99.90;;;;;;5098496;28;20015;-37
2024/01/29 07:13:12;;;;;;;4.90;3.30;;;4.40;99.90;;;;;;5098454;28;20118;-37
2024/01/29 07:15:38;;;;;;;3.58;3.20;;;4.40;99.90;;;;;;5098404;28;20059;-36
2024/01/29 07:18:04;;;;;;;4.10;3.15;;;4.50;99.90;;;;;;5099004;28;20432;-34
2024/01/29 07:20:37;;;;;;;3.38;3.00;;;4.50;99.90;;;;;;5097872;28;20110;-32
2024/01/29 07:23:03;;;;;;;3.88;3.00;;;4.50;99.90;;;;;;5098803;28;20094;-35
2024/01/29 07:25:29;;;;;;;4.13;2.80;;;4.60;99.90;;;;;;5098475;28;20046;-32
2024/01/29 07:27:56;;;;;;;4.80;3.20;;;4.60;99.90;;;;;;5098183;28;20027;-34
2024/01/29 07:30:22;;;;;;;6.70;3.92;;;4.60;99.90;;;;;;5099125;28;20115;-32
2024/01/29 07:32:47;;;;;;;4.43;3.45;;;4.60;99.90;;;;;;5099601;28;20038;-36
2024/01/29 07:35:13;;;;;;;3.53;2.90;;;4.70;99.90;;;;;;5098353;28;20046;-36
2024/01/29 07:37:38;;;;;;;3.20;2.83;;;4.70;99.90;;;;;;5099073;28;20028;-34
2024/01/29 07:40:06;;;;;;;5.38;3.53;;;4.70;99.90;;;;;;5099047;28;20033;-37
2024/01/29 07:42:32;;;;;;;3.83;3.10;;;4.70;99.90;;;;;;5098199;28;20027;-37
2024/01/29 07:44:58;;;;;;;3.28;2.97;;;4.70;99.90;;;;;;5098467;28;20019;-36
2024/01/29 07:47:23;;;;;;;4.40;3.15;;;4.80;99.90;;;;;;5099083;28;20035;-30
2024/01/29 07:49:49;;;;;;;3.47;2.72;;;4.80;99.90;;;;;;5096790;28;20635;-38
2024/01/29 07:52:14;;;;;;;3.28;2.97;;;4.80;99.90;;;;;;5098806;28;20020;-36
2024/01/29 07:54:43;;;;;;;3.05;2.70;;;4.90;99.90;;;;;;5099533;28;20134;-37
2024/01/29 07:57:08;;;;;;;3.85;3.42;;;4.90;99.90;;;;;;5097478;28;20101;-36
2024/01/29 07:59:34;;;;;;;3.70;2.88;;;4.90;99.90;;;;;;5098415;28;20031;-36
2024/01/29 08:01:59;;;;;;;3.35;3.05;;;5.00;99.90;;;;;;5099242;28;20028;-37
2024/01/29 08:04:28;;;;;;;3.85;3.13;;;5.00;99.90;;;;;;5100619;28;20752;-32
2024/01/29 08:06:54;;;;;;;3.50;2.88;;;5.00;99.90;;;;;;5101872;28;20841;-32
2024/01/29 08:09:19;;;;;;;3.90;3.40;;;5.00;99.90;;;;;;5100962;28;20035;-34
2024/01/29 08:11:45;;;;;;;3.30;3.00;;;5.00;99.90;;;;;;5101237;28;20026;-35
2024/01/29 08:14:11;;;;;;;3.13;2.83;;;5.10;99.90;;;;;;5099958;28;20027;-33
2024/01/29 08:16:36;;;;;;;3.58;3.20;;;5.10;99.90;;;;;;5099889;28;20515;-34
2024/01/29 08:19:02;;;;;;;3.80;3.40;;;5.10;99.90;;;;;;5100208;28;20035;-37
2024/01/29 08:21:28;;;;;;;5.30;3.25;;;5.20;99.90;;;;;;5101470;28;20454;-33
2024/01/29 08:23:53;;;;;;;3.83;2.88;;;5.20;99.90;;;;;;5101046;28;20140;-37
2024/01/29 08:26:19;;;;;;;3.85;3.42;;;5.20;99.90;;;;;;5101533;28;20072;-34
2024/01/29 08:28:44;;;;;;;3.58;3.22;;;5.30;99.90;;;;;;5102320;28;20126;-37
2024/01/29 08:31:10;;;;;;;3.40;3.10;;;5.30;99.90;;;;;;5101364;28;20055;-32
2024/01/29 08:33:36;;;;;;;3.55;2.90;;;5.40;99.90;;;;;;5102260;28;20023;-36
2024/01/29 08:36:01;;;;;;;4.88;3.22;;;5.40;99.90;;;;;;5101465;28;20095;-37
2024/01/29 08:38:27;;;;;;;3.60;3.30;;;5.50;99.90;;;;;;5100798;28;20027;-32
2024/01/29 08:40:54;;;;;;;4.80;3.30;;;5.50;99.90;;;;;;5101762;28;20483;-33
2024/01/29 08:43:20;;;;;;;4.45;3.70;;;5.60;99.90;;;;;;5100835;28;20039;-33
2024/01/29 08:45:46;;;;;;;4.45;3.67;;;5.60;99.90;;;;;;5100710;28;20070;-37
2024/01/29 08:48:11;;;;;;;4.90;3.75;;;5.70;99.90;;;;;;5100631;28;20027;-34
2024/01/29 08:50:38;;;;;;;5.05;3.65;;;5.70;99.90;;;;;;5100665;28;20031;-36
2024/01/29 08:53:04;;;;;;;4.78;4.00;;;5.80;99.90;;;;;;5099917;28;20583;-35
2024/01/29 08:55:31;;;;;;;4.20;3.55;;;5.80;99.90;;;;;;5101615;28;20024;-33
2024/01/29 08:57:57;;;;;;;7.10;3.72;;;5.90;99.90;;;;;;5100968;28;20020;-34
2024/01/29 09:00:22;;;;;;;5.88;4.30;;;5.90;99.90;;;;;;5100445;28;20907;-36
2024/01/29 09:02:52;;;;;;;5.72;3.80;;;5.90;99.90;;;;;;5101673;28;20533;-32
2024/01/29 09:05:17;;;;;;;4.00;3.40;;;5.90;99.90;;;;;;5100932;28;20800;-32
2024/01/29 09:07:43;;;;;;;4.43;3.70;;;5.90;99.90;;;;;;5100781;28;20028;-37
2024/01/29 09:10:09;;;;;;;6.03;3.80;;;5.90;99.90;;;;;;5101063;28;20012;-32
2024/01/29 09:12:34;;;;;;;4.43;4.00;;;5.90;99.90;;;;;;5099646;28;20130;-36
2024/01/29 09:15:04;;;;;;;4.63;3.70;;;5.90;99.90;;;;;;5099471;28;20040;-34
2024/01/29 09:17:30;;;;;;;4.40;3.88;;;5.90;99.90;;;;;;5100896;28;20070;-33
2024/01/29 09:19:55;;;;;;;5.20;3.92;;;6.00;99.90;;;;;;5099623;28;20126;-35
2024/01/29 09:22:21;;;;;;;4.70;3.70;;;5.90;99.90;;;;;;5100687;28;20119;-34
2024/01/29 09:24:46;;;;;;;3.88;3.33;;;6.00;99.90;;;;;;5100973;28;20038;-32
2024/01/29 09:27:12;;;;;;;4.88;4.03;;;6.00;99.90;;;;;;5098689;28;20485;-35
2024/01/29 09:29:38;;;;;;;4.75;3.97;;;6.00;99.90;;;;;;5099823;28;20124;-37
2024/01/29 09:32:04;;;;;;;5.22;4.40;;;6.00;99.90;;;;;;5100709;28;20846;-33
2024/01/29 09:34:30;;;;;;;7.25;4.95;;;6.00;99.90;;;;;;5099643;28;20024;-33
2024/01/29 09:36:56;;;;;;;5.40;4.88;;;6.00;99.90;;;;;;5099364;28;20016;-35
2024/01/29 09:39:24;;;;;;;7.72;5.38;;;6.10;99.90;;;;;;5099544;28;20024;-33
2024/01/29 09:41:51;;;;;;;6.15;4.25;;;6.10;99.90;;;;;;5099199;28;20153;-33
2024/01/29 09:44:17;;;;;;;5.28;4.18;;;6.20;99.90;;;;;;5098249;28;20522;-32
2024/01/29 09:46:44;;;;;;;4.53;4.13;;;6.20;99.90;;;;;;5099734;28;20058;-29
2024/01/29 09:49:10;;;;;;;4.63;3.85;;;6.30;99.90;;;;;;5097232;28;20091;-36
2024/01/29 09:51:36;;;;;;;4.45;3.70;;;6.30;99.90;;;;;;5099507;28;20020;-36
2024/01/29 09:54:03;;;;;;;5.93;4.00;;;6.40;99.90;;;;;;5100587;28;20023;-33
2024/01/29 09:56:29;;;;;;;4.32;3.70;;;6.40;99.90;;;;;;5096179;28;20034;-31
2024/01/29 09:58:55;;;;;;;3.80;3.45;;;6.40;99.90;;;;;;5100036;28;20035;-35
2024/01/29 10:01:21;;;;;;;3.85;3.42;;;6.50;99.90;;;;;;5100080;28;20247;-34
2024/01/29 10:03:48;;;;;;;4.90;3.88;;;6.60;99.90;;;;;;5099717;28;20027;-35
2024/01/29 10:06:14;;;;;;;4.35;3.75;;;6.60;99.90;;;;;;5098954;28;20600;-35
2024/01/29 10:08:40;;;;;;;5.82;4.45;;;6.70;99.90;;;;;;5099533;28;20027;-35
2024/01/29 10:11:07;;;;;;;5.38;4.35;;;6.70;99.90;;;;;;5097791;28;20035;-36
2024/01/29 10:13:36;;;;;;;7.18;4.50;;;6.70;99.90;;;;;;5098971;28;20024;-34
2024/01/29 10:16:01;;;;;;;5.55;4.22;;;6.80;99.90;;;;;;5097589;28;20036;-34
2024/01/29 10:18:27;;;;;;;4.82;4.15;;;6.80;99.90;;;;;;5098886;28;20477;-36
2024/01/29 10:21:01;;;;;;;4.95;4.45;;;6.80;99.90;;;;;;5098010;28;20020;-35
2024/01/29 10:23:27;;;;;;;5.13;4.55;;;6.90;99.90;;;;;;5098013;28;20028;-31
2024/01/29 10:25:56;;;;;;;4.88;4.38;;;6.90;99.90;;;;;;5097344;28;20020;-35
2024/01/29 10:28:26;;;;;;;5.47;4.60;;;6.90;99.90;;;;;;5098095;28;20459;-37
2024/01/29 10:30:54;;;;;;;5.97;4.38;;;6.90;99.90;;;;;;5097848;28;20022;-37
2024/01/29 10:33:20;;;;;;;4.15;3.75;;;6.90;99.90;;;;;;5099017;28;20027;-34
2024/01/29 10:35:45;;;;;;;4.90;3.92;;;6.90;99.90;;;;;;5099849;28;20023;-36
2024/01/29 10:38:14;;;;;;;4.10;3.70;;;6.90;99.90;;;;;;5098906;28;20075;-35
2024/01/29 10:40:41;;;;;;;5.82;4.50;;;7.00;99.90;;;;;;5099247;28;20023;-34
2024/01/29 10:43:13;;;;;;;5.18;4.68;;;7.00;99.90;;;;;;5099023;28;20151;-32
2024/01/29 10:45:41;;;;;;;5.07;4.07;;;7.00;99.90;;;;;;5099183;28;20055;-38
2024/01/29 10:48:23;;;;;;;5.68;4.45;;;7.00;99.90;;;;;;5099025;28;20381;-36
2024/01/29 10:50:50;;;;;;;5.47;4.40;;;7.10;99.90;;;;;;5099744;28;20098;-38
2024/01/29 10:53:17;;;;;;;4.45;4.03;;;7.10;99.90;;;;;;5098468;28;20026;-35
2024/01/29 10:55:44;;;;;;;5.72;4.03;;;7.10;99.90;;;;;;5100305;28;20704;-34
2024/01/29 10:58:12;;;;;;;4.45;4.05;;;7.20;99.90;;;;;;5098228;28;20023;-33
2024/01/29 11:00:40;;;;;;;4.70;4.10;;;7.30;99.90;;;;;;5099449;28;20036;-32
2024/01/29 11:03:09;;;;;;;4.78;3.90;;;7.30;99.90;;;;;;5099797;28;20026;-35
2024/01/29 11:05:35;;;;;;;3.70;3.40;;;7.30;99.90;;;;;;5098402;28;20032;-36
2024/01/29 11:08:03;;;;;;;5.65;4.50;;;7.40;99.90;;;;;;5098521;28;20047;-36
2024/01/29 11:10:33;;;;;;;5.18;4.30;;;7.40;99.90;;;;;;5100218;28;20034;-33
2024/01/29 11:13:04;;;;;;;6.13;4.10;;;7.50;99.90;;;;;;5098202;28;20024;-39
2024/01/29 11:15:30;;;;;;;4.18;3.78;;;7.50;99.90;;;;;;5098886;28;20547;-37
2024/01/29 11:17:57;;;;;;;4.47;3.92;;;7.60;99.90;;;;;;5098827;28;20026;-33
2024/01/29 11:20:23;;;;;;;5.35;4.68;;;7.70;99.90;;;;;;5098154;28;20035;-36
2024/01/29 11:22:50;;;;;;;5.57;4.93;;;7.70;99.90;;;;;;5099235;28;20024;-34
2024/01/29 11:25:18;;;;;;;4.55;4.05;;;7.80;99.90;;;;;;5098892;28;20092;-33
2024/01/29 11:27:46;;;;;;;4.70;3.80;;;7.90;99.90;;;;;;5097845;28;20796;-36
2024/01/29 11:30:25;;;;;;;6.22;4.63;;;7.90;99.90;;;;;;5098118;28;20063;-34
2024/01/29 11:32:53;;;;;;;4.15;3.70;;;8.00;99.90;;;;;;5098403;28;20035;-33
2024/01/29 11:35:23;;;;;;;4.45;4.05;;;8.10;99.90;;;;;;5097413;28;20819;-37
2024/01/29 11:37:52;;;;;;;7.18;4.45;;;8.20;99.90;;;;;;5101890;28;20101;-33
2024/01/29 11:40:41;;;;;;;7.63;5.38;;;8.20;99.90;;;;;;5101760;28;20020;-36
2024/01/29 11:43:11;;;;;;;6.85;5.53;;;8.30;99.90;;;;;;5102461;28;20032;-35
2024/01/29 11:45:38;;;;;;;6.38;4.93;;;8.40;99.90;;;;;;5091480;28;20023;-33
2024/01/29 11:48:11;;;;;;;7.60;6.10;;;8.50;99.90;;;;;;5101671;28;20031;-34
2024/01/29 11:50:54;;;;;;;8.15;6.03;;;8.50;99.90;;;;;;5102723;28;20322;-31
2024/01/29 11:53:23;;;;;;;6.82;5.65;;;8.60;99.90;;;;;;5100736;28;20020;-31
2024/01/29 11:55:49;;;;;;;5.28;4.78;;;8.70;99.90;;;;;;5099931;28;20077;-34
2024/01/29 11:58:16;;;;;;;6.47;5.38;;;8.70;99.90;;;;;;5100616;28;20599;-33
2024/01/29 12:00:43;;;;;;;5.50;4.47;;;8.80;99.90;;;;;;5101211;28;20058;-36
2024/01/29 12:03:11;;;;;;;5.53;4.50;;;8.80;99.90;;;;;;5100866;28;20949;-36
2024/01/29 12:05:37;;;;;;;5.60;4.93;;;8.90;99.90;;;;;;5100509;28;20024;-35
2024/01/29 12:08:03;;;;;;;5.53;4.22;;;8.90;99.90;;;;;;5100966;28;20032;-36
2024/01/29 12:10:31;;;;;;;5.28;4.78;;;8.90;99.90;;;;;;5099936;28;20031;-37
2024/01/29 12:13:00;;;;;;;5.07;4.45;;;8.90;99.90;;;;;;5102361;28;20058;-34
2024/01/29 12:15:26;;;;;;;4.45;4.03;;;8.90;99.90;;;;;;5099544;28;20047;-35
2024/01/29 12:17:51;;;;;;;4.78;4.28;;;8.90;99.90;;;;;;5100112;28;20020;-35
2024/01/29 12:20:17;;;;;;;4.95;4.32;;;8.90;99.90;;;;;;5100600;28;20543;-36
2024/01/29 12:22:43;;;;;;;5.65;5.07;;;8.90;99.90;;;;;;5100689;28;20881;-38
2024/01/29 12:25:11;;;;;;;5.40;4.47;;;9.00;99.90;;;;;;5100791;28;20019;-36
2024/01/29 12:27:40;;;;;;;5.30;4.80;;;9.00;99.90;;;;;;5101872;28;20069;-34
2024/01/29 12:30:13;;;;;;;5.10;4.50;;;9.00;99.90;;;;;;5101437;28;20027;-36
2024/01/29 12:32:42;;;;;;;6.55;4.60;;;9.00;99.90;;;;;;5101977;28;20599;-36
2024/01/29 12:35:36;;;;;;;4.65;3.83;;;9.00;99.90;;;;;;5101258;28;20028;-35
2024/01/29 12:38:16;;;;;;;4.68;3.97;;;9.00;99.90;;;;;;5099393;28;20602;-35
2024/01/29 12:40:42;;;;;;;4.28;3.88;;;9.10;99.90;;;;;;5101730;28;20103;-35
2024/01/29 12:43:10;;;;;;;4.38;3.72;;;9.10;99.90;;;;;;5101739;28;20038;-38
2024/01/29 12:45:36;;;;;;;5.30;4.32;;;9.10;99.90;;;;;;5101166;28;20027;-35
2024/01/29 12:48:26;;;;;;;5.75;4.00;;;9.20;99.90;;;;;;5100961;28;20043;-36
2024/01/29 12:50:51;;;;;;;4.70;4.15;;;9.20;99.90;;;;;;5099223;28;20080;-35
2024/01/29 12:53:17;;;;;;;4.65;4.15;;;9.20;99.90;;;;;;5099850;28;20023;-35
2024/01/29 12:55:43;;;;;;;4.82;4.18;;;9.30;99.90;;;;;;5100225;28;20024;-35